sensor_id;sensor_type;location;lat;lon;timestamp;P1;durP1;ratioP1;P2;durP2;ratioP2
35576;SDS011;21680;52.400;16.920;2023-02-28T00:00:09;33.00;;;11.50;;
35576;SDS011;21680;52.400;16.920;2023-02-28T00:02:37;35.00;;;11.70;;
35576;SDS011;21680;52.400;16.920;2023-02-28T00:05:03;36.70;;;11.80;;
35576;SDS011;21680;52.400;16.920;2023-02-28T00:07:30;29.50;;;11.90;;
35576;SDS011;21680;52.400;16.920;2023-02-28T00:09:56;28.00;;;12.20;;
35576;SDS011;21680;52.400;16.920;2023-02-28T00:12:22;30.70;;;11.90;;
35576;SDS011;21680;52.400;16.920;2023-02-28T00:14:48;36.60;;;13.10;;
35576;SDS011;21680;52.400;16.920;2023-02-28T00:17:13;42.90;;;13.20;;
35576;SDS011;21680;52.400;16.920;2023-02-28T00:19:39;39.40;;;13.00;;
35576;SDS011;21680;52.400;16.920;2023-02-28T00:22:04;46.40;;;14.10;;
35576;SDS011;21680;52.400;16.920;2023-02-28T00:24:30;30.70;;;11.80;;
35576;SDS011;21680;52.400;16.920;2023-02-28T00:26:55;38.30;;;13.50;;
35576;SDS011;21680;52.400;16.920;2023-02-28T00:29:21;41.70;;;12.80;;
35576;SDS011;21680;52.400;16.920;2023-02-28T00:31:46;48.00;;;13.70;;
35576;SDS011;21680;52.400;16.920;2023-02-28T00:34:11;37.60;;;13.20;;
35576;SDS011;21680;52.400;16.920;2023-02-28T00:36:37;43.10;;;15.30;;
35576;SDS011;21680;52.400;16.920;2023-02-28T00:39:03;53.10;;;16.00;;
35576;SDS011;21680;52.400;16.920;2023-02-28T00:41:28;40.10;;;14.60;;
35576;SDS011;21680;52.400;16.920;2023-02-28T00:43:53;45.20;;;12.70;;
35576;SDS011;21680;52.400;16.920;2023-02-28T00:46:18;41.90;;;14.20;;
35576;SDS011;21680;52.400;16.920;2023-02-28T00:48:44;32.40;;;12.30;;
35576;SDS011;21680;52.400;16.920;2023-02-28T00:51:09;40.70;;;14.00;;
35576;SDS011;21680;52.400;16.920;2023-02-28T00:53:34;33.20;;;12.60;;
35576;SDS011;21680;52.400;16.920;2023-02-28T00:56:00;30.90;;;11.80;;
35576;SDS011;21680;52.400;16.920;2023-02-28T00:58:25;30.30;;;10.50;;
35576;SDS011;21680;52.400;16.920;2023-02-28T01:00:51;35.80;;;12.70;;
35576;SDS011;21680;52.400;16.920;2023-02-28T01:03:18;40.60;;;13.30;;
35576;SDS011;21680;52.400;16.920;2023-02-28T01:05:44;46.50;;;15.40;;
35576;SDS011;21680;52.400;16.920;2023-02-28T01:08:10;36.70;;;13.30;;
35576;SDS011;21680;52.400;16.920;2023-02-28T01:10:36;40.50;;;13.90;;
35576;SDS011;21680;52.400;16.920;2023-02-28T01:13:02;28.40;;;11.90;;
35576;SDS011;21680;52.400;16.920;2023-02-28T01:15:28;38.30;;;13.40;;
35576;SDS011;21680;52.400;16.920;2023-02-28T01:17:53;40.20;;;12.60;;
35576;SDS011;21680;52.400;16.920;2023-02-28T01:20:19;32.10;;;12.80;;
35576;SDS011;21680;52.400;16.920;2023-02-28T01:22:44;42.20;;;11.70;;
35576;SDS011;21680;52.400;16.920;2023-02-28T01:25:10;37.00;;;12.10;;
35576;SDS011;21680;52.400;16.920;2023-02-28T01:27:35;35.50;;;13.60;;
35576;SDS011;21680;52.400;16.920;2023-02-28T01:30:01;34.70;;;12.00;;
35576;SDS011;21680;52.400;16.920;2023-02-28T01:32:27;34.90;;;12.60;;
35576;SDS011;21680;52.400;16.920;2023-02-28T01:34:52;30.70;;;11.40;;
35576;SDS011;21680;52.400;16.920;2023-02-28T01:37:18;32.40;;;11.70;;
35576;SDS011;21680;52.400;16.920;2023-02-28T01:39:43;36.00;;;12.60;;
35576;SDS011;21680;52.400;16.920;2023-02-28T01:42:09;37.80;;;12.70;;
35576;SDS011;21680;52.400;16.920;2023-02-28T01:47:43;42.40;;;13.50;;
35576;SDS011;21680;52.400;16.920;2023-02-28T01:50:12;33.40;;;11.10;;
35576;SDS011;21680;52.400;16.920;2023-02-28T01:52:41;35.70;;;11.40;;
35576;SDS011;21680;52.400;16.920;2023-02-28T01:55:08;41.10;;;12.70;;
35576;SDS011;21680;52.400;16.920;2023-02-28T01:57:38;48.60;;;13.50;;
35576;SDS011;21680;52.400;16.920;2023-02-28T02:00:09;38.40;;;13.10;;
35576;SDS011;21680;52.400;16.920;2023-02-28T02:02:38;39.50;;;12.80;;
35576;SDS011;21680;52.400;16.920;2023-02-28T02:07:43;42.70;;;13.60;;
35576;SDS011;21680;52.400;16.920;2023-02-28T02:10:13;46.40;;;13.00;;
35576;SDS011;21680;52.400;16.920;2023-02-28T02:15:57;45.90;;;14.20;;
35576;SDS011;21680;52.400;16.920;2023-02-28T02:19:01;33.50;;;11.50;;
35576;SDS011;21680;52.400;16.920;2023-02-28T02:30:21;35.00;;;11.60;;
35576;SDS011;21680;52.400;16.920;2023-02-28T02:35:55;37.10;;;12.00;;
35576;SDS011;21680;52.400;16.920;2023-02-28T02:38:35;25.80;;;10.80;;
35576;SDS011;21680;52.400;16.920;2023-02-28T02:41:11;39.50;;;11.70;;
35576;SDS011;21680;52.400;16.920;2023-02-28T02:43:47;31.80;;;10.70;;
35576;SDS011;21680;52.400;16.920;2023-02-28T02:46:23;34.80;;;11.90;;
35576;SDS011;21680;52.400;16.920;2023-02-28T02:48:54;28.20;;;10.70;;
35576;SDS011;21680;52.400;16.920;2023-02-28T02:51:22;33.20;;;10.70;;
35576;SDS011;21680;52.400;16.920;2023-02-28T02:53:54;28.30;;;10.20;;
35576;SDS011;21680;52.400;16.920;2023-02-28T02:56:23;34.30;;;10.90;;
35576;SDS011;21680;52.400;16.920;2023-02-28T02:58:53;25.70;;;9.40;;
35576;SDS011;21680;52.400;16.920;2023-02-28T03:01:24;26.90;;;9.40;;
35576;SDS011;21680;52.400;16.920;2023-02-28T03:03:58;38.90;;;10.40;;
35576;SDS011;21680;52.400;16.920;2023-02-28T03:06:26;28.40;;;8.50;;
35576;SDS011;21680;52.400;16.920;2023-02-28T03:08:52;34.40;;;10.20;;
35576;SDS011;21680;52.400;16.920;2023-02-28T03:11:18;32.80;;;11.20;;
35576;SDS011;21680;52.400;16.920;2023-02-28T03:16:36;22.90;;;8.60;;
35576;SDS011;21680;52.400;16.920;2023-02-28T03:25:13;32.80;;;9.40;;
35576;SDS011;21680;52.400;16.920;2023-02-28T03:30:35;27.20;;;9.50;;
35576;SDS011;21680;52.400;16.920;2023-02-28T03:33:08;22.10;;;8.50;;
35576;SDS011;21680;52.400;16.920;2023-02-28T03:38:08;28.90;;;9.90;;
35576;SDS011;21680;52.400;16.920;2023-02-28T03:40:39;26.30;;;9.60;;
35576;SDS011;21680;52.400;16.920;2023-02-28T03:43:12;31.50;;;10.40;;
35576;SDS011;21680;52.400;16.920;2023-02-28T03:45:42;27.50;;;10.10;;
35576;SDS011;21680;52.400;16.920;2023-02-28T03:48:18;26.20;;;10.40;;
35576;SDS011;21680;52.400;16.920;2023-02-28T03:51:07;33.00;;;11.00;;
35576;SDS011;21680;52.400;16.920;2023-02-28T03:53:42;28.90;;;10.80;;
35576;SDS011;21680;52.400;16.920;2023-02-28T03:56:22;37.40;;;12.30;;
35576;SDS011;21680;52.400;16.920;2023-02-28T03:59:16;36.10;;;11.40;;
35576;SDS011;21680;52.400;16.920;2023-02-28T04:01:50;30.30;;;10.70;;
35576;SDS011;21680;52.400;16.920;2023-02-28T04:04:17;34.70;;;11.20;;
35576;SDS011;21680;52.400;16.920;2023-02-28T04:06:43;38.30;;;13.00;;
35576;SDS011;21680;52.400;16.920;2023-02-28T04:09:11;30.10;;;11.80;;
35576;SDS011;21680;52.400;16.920;2023-02-28T04:11:39;45.20;;;12.10;;
35576;SDS011;21680;52.400;16.920;2023-02-28T04:14:07;44.70;;;12.80;;
35576;SDS011;21680;52.400;16.920;2023-02-28T04:16:34;34.80;;;12.70;;
35576;SDS011;21680;52.400;16.920;2023-02-28T04:19:05;34.10;;;12.20;;
35576;SDS011;21680;52.400;16.920;2023-02-28T04:21:33;32.60;;;11.60;;
35576;SDS011;21680;52.400;16.920;2023-02-28T04:24:01;32.10;;;13.00;;
35576;SDS011;21680;52.400;16.920;2023-02-28T04:26:33;32.90;;;12.30;;
35576;SDS011;21680;52.400;16.920;2023-02-28T04:29:00;45.30;;;14.30;;
35576;SDS011;21680;52.400;16.920;2023-02-28T04:31:28;39.30;;;13.90;;
35576;SDS011;21680;52.400;16.920;2023-02-28T04:33:53;47.00;;;15.70;;
35576;SDS011;21680;52.400;16.920;2023-02-28T04:36:18;42.90;;;15.60;;
35576;SDS011;21680;52.400;16.920;2023-02-28T04:38:45;45.90;;;14.40;;
35576;SDS011;21680;52.400;16.920;2023-02-28T04:41:14;45.20;;;14.00;;
35576;SDS011;21680;52.400;16.920;2023-02-28T04:43:40;40.60;;;14.90;;
35576;SDS011;21680;52.400;16.920;2023-02-28T04:46:05;38.50;;;14.20;;
35576;SDS011;21680;52.400;16.920;2023-02-28T04:48:32;36.10;;;13.30;;
35576;SDS011;21680;52.400;16.920;2023-02-28T04:51:11;45.40;;;15.20;;
35576;SDS011;21680;52.400;16.920;2023-02-28T04:53:39;39.70;;;14.80;;
35576;SDS011;21680;52.400;16.920;2023-02-28T04:56:06;51.20;;;13.70;;
35576;SDS011;21680;52.400;16.920;2023-02-28T04:58:35;40.10;;;14.90;;
35576;SDS011;21680;52.400;16.920;2023-02-28T05:01:01;45.20;;;14.20;;
35576;SDS011;21680;52.400;16.920;2023-02-28T05:03:29;38.70;;;15.00;;
35576;SDS011;21680;52.400;16.920;2023-02-28T05:05:55;42.30;;;14.60;;
35576;SDS011;21680;52.400;16.920;2023-02-28T05:08:20;44.20;;;14.30;;
35576;SDS011;21680;52.400;16.920;2023-02-28T05:10:45;49.90;;;14.90;;
35576;SDS011;21680;52.400;16.920;2023-02-28T05:13:12;47.80;;;13.60;;
35576;SDS011;21680;52.400;16.920;2023-02-28T05:15:37;41.20;;;13.90;;
35576;SDS011;21680;52.400;16.920;2023-02-28T05:18:03;48.00;;;16.10;;
35576;SDS011;21680;52.400;16.920;2023-02-28T05:20:28;40.90;;;15.00;;
35576;SDS011;21680;52.400;16.920;2023-02-28T05:22:53;45.30;;;14.60;;
35576;SDS011;21680;52.400;16.920;2023-02-28T05:25:20;43.00;;;15.30;;
35576;SDS011;21680;52.400;16.920;2023-02-28T05:27:47;39.80;;;13.60;;
35576;SDS011;21680;52.400;16.920;2023-02-28T05:30:13;50.20;;;14.50;;
35576;SDS011;21680;52.400;16.920;2023-02-28T05:32:40;46.70;;;13.90;;
35576;SDS011;21680;52.400;16.920;2023-02-28T05:35:11;36.90;;;12.70;;
35576;SDS011;21680;52.400;16.920;2023-02-28T05:37:37;34.30;;;12.40;;
35576;SDS011;21680;52.400;16.920;2023-02-28T05:40:04;31.10;;;12.30;;
35576;SDS011;21680;52.400;16.920;2023-02-28T05:42:36;37.60;;;10.60;;
35576;SDS011;21680;52.400;16.920;2023-02-28T05:45:02;30.70;;;11.10;;
35576;SDS011;21680;52.400;16.920;2023-02-28T05:47:29;34.50;;;12.60;;
35576;SDS011;21680;52.400;16.920;2023-02-28T05:49:54;37.10;;;11.30;;
35576;SDS011;21680;52.400;16.920;2023-02-28T05:52:19;32.60;;;11.50;;
35576;SDS011;21680;52.400;16.920;2023-02-28T05:54:46;43.30;;;13.50;;
35576;SDS011;21680;52.400;16.920;2023-02-28T05:57:12;44.30;;;13.70;;
35576;SDS011;21680;52.400;16.920;2023-02-28T05:59:39;37.00;;;12.20;;
35576;SDS011;21680;52.400;16.920;2023-02-28T06:02:05;37.50;;;12.60;;
35576;SDS011;21680;52.400;16.920;2023-02-28T06:04:30;45.40;;;15.30;;
35576;SDS011;21680;52.400;16.920;2023-02-28T06:06:56;49.20;;;15.60;;
35576;SDS011;21680;52.400;16.920;2023-02-28T06:09:22;47.50;;;15.40;;
35576;SDS011;21680;52.400;16.920;2023-02-28T06:11:47;47.30;;;14.80;;
35576;SDS011;21680;52.400;16.920;2023-02-28T06:14:17;45.30;;;14.00;;
35576;SDS011;21680;52.400;16.920;2023-02-28T06:16:44;47.10;;;15.00;;
35576;SDS011;21680;52.400;16.920;2023-02-28T06:19:10;47.20;;;16.20;;
35576;SDS011;21680;52.400;16.920;2023-02-28T06:21:36;42.60;;;15.70;;
35576;SDS011;21680;52.400;16.920;2023-02-28T06:24:01;45.70;;;15.10;;
35576;SDS011;21680;52.400;16.920;2023-02-28T06:26:27;50.10;;;17.30;;
35576;SDS011;21680;52.400;16.920;2023-02-28T06:28:53;45.50;;;15.50;;
35576;SDS011;21680;52.400;16.920;2023-02-28T06:31:19;44.10;;;13.70;;
35576;SDS011;21680;52.400;16.920;2023-02-28T06:33:46;49.70;;;15.30;;
35576;SDS011;21680;52.400;16.920;2023-02-28T06:36:12;43.20;;;15.50;;
35576;SDS011;21680;52.400;16.920;2023-02-28T06:38:39;44.50;;;15.30;;
35576;SDS011;21680;52.400;16.920;2023-02-28T06:41:08;50.60;;;17.20;;
35576;SDS011;21680;52.400;16.920;2023-02-28T06:43:35;58.60;;;19.40;;
35576;SDS011;21680;52.400;16.920;2023-02-28T06:46:03;56.00;;;19.50;;
35576;SDS011;21680;52.400;16.920;2023-02-28T06:48:31;61.40;;;18.20;;
35576;SDS011;21680;52.400;16.920;2023-02-28T06:51:03;66.10;;;22.50;;
35576;SDS011;21680;52.400;16.920;2023-02-28T06:53:29;47.90;;;16.10;;
35576;SDS011;21680;52.400;16.920;2023-02-28T06:55:57;50.20;;;16.70;;
35576;SDS011;21680;52.400;16.920;2023-02-28T06:58:22;39.40;;;13.40;;
35576;SDS011;21680;52.400;16.920;2023-02-28T07:00:50;46.40;;;16.10;;
35576;SDS011;21680;52.400;16.920;2023-02-28T07:03:17;54.60;;;17.50;;
35576;SDS011;21680;52.400;16.920;2023-02-28T07:05:44;56.50;;;17.60;;
35576;SDS011;21680;52.400;16.920;2023-02-28T07:08:10;60.50;;;19.50;;
35576;SDS011;21680;52.400;16.920;2023-02-28T07:10:39;55.70;;;19.00;;
35576;SDS011;21680;52.400;16.920;2023-02-28T07:13:05;54.90;;;21.10;;
35576;SDS011;21680;52.400;16.920;2023-02-28T07:15:31;86.20;;;23.80;;
35576;SDS011;21680;52.400;16.920;2023-02-28T07:17:57;71.50;;;23.90;;
35576;SDS011;21680;52.400;16.920;2023-02-28T07:20:22;72.50;;;24.00;;
35576;SDS011;21680;52.400;16.920;2023-02-28T07:22:48;60.90;;;21.50;;
35576;SDS011;21680;52.400;16.920;2023-02-28T07:25:20;66.10;;;21.20;;
35576;SDS011;21680;52.400;16.920;2023-02-28T07:27:47;58.40;;;20.70;;
35576;SDS011;21680;52.400;16.920;2023-02-28T07:30:12;58.20;;;19.80;;
35576;SDS011;21680;52.400;16.920;2023-02-28T07:32:40;55.60;;;19.20;;
35576;SDS011;21680;52.400;16.920;2023-02-28T07:35:06;52.90;;;21.00;;
35576;SDS011;21680;52.400;16.920;2023-02-28T07:37:31;64.00;;;21.80;;
35576;SDS011;21680;52.400;16.920;2023-02-28T07:40:02;63.50;;;23.10;;
35576;SDS011;21680;52.400;16.920;2023-02-28T07:42:35;58.30;;;21.30;;
35576;SDS011;21680;52.400;16.920;2023-02-28T07:45:00;55.30;;;20.30;;
35576;SDS011;21680;52.400;16.920;2023-02-28T07:47:28;51.70;;;19.90;;
35576;SDS011;21680;52.400;16.920;2023-02-28T07:49:55;62.20;;;21.30;;
35576;SDS011;21680;52.400;16.920;2023-02-28T07:52:20;58.10;;;20.80;;
35576;SDS011;21680;52.400;16.920;2023-02-28T07:54:46;54.20;;;20.70;;
35576;SDS011;21680;52.400;16.920;2023-02-28T07:57:11;51.10;;;19.20;;
35576;SDS011;21680;52.400;16.920;2023-02-28T07:59:36;70.40;;;23.40;;
35576;SDS011;21680;52.400;16.920;2023-02-28T08:02:02;65.90;;;21.90;;
35576;SDS011;21680;52.400;16.920;2023-02-28T08:04:27;66.90;;;22.60;;
35576;SDS011;21680;52.400;16.920;2023-02-28T08:06:52;55.10;;;20.00;;
35576;SDS011;21680;52.400;16.920;2023-02-28T08:09:18;53.00;;;22.20;;
35576;SDS011;21680;52.400;16.920;2023-02-28T08:11:44;54.10;;;20.50;;
35576;SDS011;21680;52.400;16.920;2023-02-28T08:14:10;54.20;;;21.20;;
35576;SDS011;21680;52.400;16.920;2023-02-28T08:16:35;50.70;;;21.00;;
35576;SDS011;21680;52.400;16.920;2023-02-28T08:19:00;51.50;;;18.70;;
35576;SDS011;21680;52.400;16.920;2023-02-28T08:21:26;57.00;;;21.30;;
35576;SDS011;21680;52.400;16.920;2023-02-28T08:23:51;51.10;;;19.50;;
35576;SDS011;21680;52.400;16.920;2023-02-28T08:26:17;47.50;;;19.30;;
35576;SDS011;21680;52.400;16.920;2023-02-28T08:28:43;49.80;;;18.60;;
35576;SDS011;21680;52.400;16.920;2023-02-28T08:31:10;54.60;;;19.90;;
35576;SDS011;21680;52.400;16.920;2023-02-28T08:33:38;55.40;;;18.90;;
35576;SDS011;21680;52.400;16.920;2023-02-28T08:36:05;57.20;;;19.60;;
35576;SDS011;21680;52.400;16.920;2023-02-28T08:38:31;51.30;;;19.70;;
35576;SDS011;21680;52.400;16.920;2023-02-28T08:40:57;47.20;;;17.10;;
35576;SDS011;21680;52.400;16.920;2023-02-28T08:43:24;46.10;;;18.70;;
35576;SDS011;21680;52.400;16.920;2023-02-28T08:45:53;48.10;;;19.40;;
35576;SDS011;21680;52.400;16.920;2023-02-28T08:48:19;47.00;;;17.30;;
35576;SDS011;21680;52.400;16.920;2023-02-28T08:50:44;55.60;;;18.90;;
35576;SDS011;21680;52.400;16.920;2023-02-28T08:53:10;38.00;;;16.90;;
35576;SDS011;21680;52.400;16.920;2023-02-28T08:55:35;46.10;;;17.00;;
35576;SDS011;21680;52.400;16.920;2023-02-28T08:58:00;44.50;;;17.60;;
35576;SDS011;21680;52.400;16.920;2023-02-28T09:00:26;48.30;;;16.60;;
35576;SDS011;21680;52.400;16.920;2023-02-28T09:02:52;38.80;;;16.70;;
35576;SDS011;21680;52.400;16.920;2023-02-28T09:05:17;53.10;;;18.40;;
35576;SDS011;21680;52.400;16.920;2023-02-28T09:07:43;45.70;;;16.70;;
35576;SDS011;21680;52.400;16.920;2023-02-28T09:10:09;51.90;;;20.50;;
35576;SDS011;21680;52.400;16.920;2023-02-28T09:12:35;41.20;;;16.00;;
35576;SDS011;21680;52.400;16.920;2023-02-28T09:15:01;39.10;;;15.40;;
35576;SDS011;21680;52.400;16.920;2023-02-28T09:17:27;48.90;;;17.30;;
35576;SDS011;21680;52.400;16.920;2023-02-28T09:19:52;39.00;;;16.70;;
35576;SDS011;21680;52.400;16.920;2023-02-28T09:22:17;50.80;;;18.20;;
35576;SDS011;21680;52.400;16.920;2023-02-28T09:24:42;46.00;;;17.60;;
35576;SDS011;21680;52.400;16.920;2023-02-28T09:27:09;43.50;;;17.40;;
35576;SDS011;21680;52.400;16.920;2023-02-28T09:29:34;42.70;;;16.80;;
35576;SDS011;21680;52.400;16.920;2023-02-28T09:32:00;50.10;;;17.40;;
35576;SDS011;21680;52.400;16.920;2023-02-28T09:34:26;42.40;;;16.80;;
35576;SDS011;21680;52.400;16.920;2023-02-28T09:36:53;38.10;;;15.70;;
35576;SDS011;21680;52.400;16.920;2023-02-28T09:39:20;37.10;;;14.10;;
35576;SDS011;21680;52.400;16.920;2023-02-28T09:41:47;28.30;;;11.80;;
35576;SDS011;21680;52.400;16.920;2023-02-28T09:44:38;37.40;;;13.40;;
35576;SDS011;21680;52.400;16.920;2023-02-28T09:47:13;38.50;;;13.40;;
35576;SDS011;21680;52.400;16.920;2023-02-28T09:49:42;37.80;;;14.70;;
35576;SDS011;21680;52.400;16.920;2023-02-28T09:52:13;28.20;;;11.90;;
35576;SDS011;21680;52.400;16.920;2023-02-28T09:54:44;31.80;;;12.80;;
35576;SDS011;21680;52.400;16.920;2023-02-28T10:02:53;38.50;;;13.50;;
35576;SDS011;21680;52.400;16.920;2023-02-28T10:10:44;30.70;;;12.30;;
35576;SDS011;21680;52.400;16.920;2023-02-28T10:16:31;29.10;;;12.30;;
35576;SDS011;21680;52.400;16.920;2023-02-28T10:20:01;32.30;;;12.20;;
35576;SDS011;21680;52.400;16.920;2023-02-28T10:25:18;28.90;;;10.80;;
35576;SDS011;21680;52.400;16.920;2023-02-28T10:27:49;27.60;;;10.20;;
35576;SDS011;21680;52.400;16.920;2023-02-28T10:30:18;25.40;;;9.20;;
35576;SDS011;21680;52.400;16.920;2023-02-28T10:32:46;21.20;;;8.80;;
35576;SDS011;21680;52.400;16.920;2023-02-28T10:35:19;25.70;;;8.60;;
35576;SDS011;21680;52.400;16.920;2023-02-28T10:37:55;24.70;;;9.60;;
35576;SDS011;21680;52.400;16.920;2023-02-28T10:42:57;23.60;;;8.20;;
35576;SDS011;21680;52.400;16.920;2023-02-28T10:45:33;15.70;;;7.30;;
35576;SDS011;21680;52.400;16.920;2023-02-28T10:48:10;19.00;;;8.40;;
35576;SDS011;21680;52.400;16.920;2023-02-28T10:50:55;21.00;;;8.60;;
35576;SDS011;21680;52.400;16.920;2023-02-28T11:01:42;20.50;;;7.90;;
35576;SDS011;21680;52.400;16.920;2023-02-28T11:09:44;21.10;;;7.70;;
35576;SDS011;21680;52.400;16.920;2023-02-28T11:14:55;26.90;;;7.80;;
35576;SDS011;21680;52.400;16.920;2023-02-28T11:17:28;17.60;;;7.90;;
35576;SDS011;21680;52.400;16.920;2023-02-28T11:20:05;24.60;;;8.20;;
35576;SDS011;21680;52.400;16.920;2023-02-28T11:22:43;23.10;;;10.30;;
35576;SDS011;21680;52.400;16.920;2023-02-28T11:25:26;16.90;;;8.10;;
35576;SDS011;21680;52.400;16.920;2023-02-28T11:27:59;27.00;;;10.10;;
35576;SDS011;21680;52.400;16.920;2023-02-28T11:30:32;28.10;;;10.70;;
35576;SDS011;21680;52.400;16.920;2023-02-28T11:33:20;24.90;;;10.00;;
35576;SDS011;21680;52.400;16.920;2023-02-28T11:35:47;27.30;;;9.80;;
35576;SDS011;21680;52.400;16.920;2023-02-28T11:38:14;15.50;;;7.70;;
35576;SDS011;21680;52.400;16.920;2023-02-28T11:40:46;20.80;;;7.60;;
35576;SDS011;21680;52.400;16.920;2023-02-28T11:46:05;25.00;;;9.80;;
35576;SDS011;21680;52.400;16.920;2023-02-28T11:49:02;27.00;;;10.80;;
35576;SDS011;21680;52.400;16.920;2023-02-28T11:51:59;20.20;;;9.00;;
35576;SDS011;21680;52.400;16.920;2023-02-28T12:00:07;18.90;;;9.80;;
35576;SDS011;21680;52.400;16.920;2023-02-28T12:05:44;22.50;;;9.40;;
35576;SDS011;21680;52.400;16.920;2023-02-28T12:14:46;22.80;;;10.40;;
35576;SDS011;21680;52.400;16.920;2023-02-28T12:20:34;26.40;;;9.50;;
35576;SDS011;21680;52.400;16.920;2023-02-28T12:28:40;15.90;;;7.80;;
35576;SDS011;21680;52.400;16.920;2023-02-28T12:31:19;16.10;;;7.40;;
35576;SDS011;21680;52.400;16.920;2023-02-28T12:33:50;24.20;;;9.30;;
35576;SDS011;21680;52.400;16.920;2023-02-28T12:39:00;18.00;;;7.40;;
35576;SDS011;21680;52.400;16.920;2023-02-28T12:44:19;16.50;;;6.30;;
35576;SDS011;21680;52.400;16.920;2023-02-28T12:46:49;16.10;;;7.10;;
35576;SDS011;21680;52.400;16.920;2023-02-28T12:49:24;16.90;;;7.20;;
35576;SDS011;21680;52.400;16.920;2023-02-28T12:51:57;15.50;;;7.10;;
35576;SDS011;21680;52.400;16.920;2023-02-28T12:57:17;18.60;;;7.30;;
35576;SDS011;21680;52.400;16.920;2023-02-28T12:59:57;25.00;;;11.40;;
35576;SDS011;21680;52.400;16.920;2023-02-28T13:10:46;12.60;;;5.40;;
35576;SDS011;21680;52.400;16.920;2023-02-28T13:13:16;12.30;;;5.20;;
35576;SDS011;21680;52.400;16.920;2023-02-28T13:18:38;19.40;;;7.20;;
35576;SDS011;21680;52.400;16.920;2023-02-28T13:21:25;10.80;;;5.70;;
35576;SDS011;21680;52.400;16.920;2023-02-28T13:28:57;14.40;;;6.30;;
35576;SDS011;21680;52.400;16.920;2023-02-28T13:31:24;15.60;;;6.00;;
35576;SDS011;21680;52.400;16.920;2023-02-28T13:39:45;17.90;;;6.40;;
35576;SDS011;21680;52.400;16.920;2023-02-28T13:41:48;11.50;;;5.70;;
35576;SDS011;21680;52.400;16.920;2023-02-28T13:44:21;13.60;;;6.60;;
35576;SDS011;21680;52.400;16.920;2023-02-28T13:52:33;9.70;;;5.30;;
35576;SDS011;21680;52.400;16.920;2023-02-28T14:06:24;9.40;;;4.90;;
35576;SDS011;21680;52.400;16.920;2023-02-28T14:09:15;10.70;;;5.70;;
35576;SDS011;21680;52.400;16.920;2023-02-28T14:11:42;15.30;;;5.80;;
35576;SDS011;21680;52.400;16.920;2023-02-28T14:14:09;12.20;;;5.30;;
35576;SDS011;21680;52.400;16.920;2023-02-28T14:19:30;14.90;;;6.10;;
35576;SDS011;21680;52.400;16.920;2023-02-28T14:22:14;12.90;;;5.10;;
35576;SDS011;21680;52.400;16.920;2023-02-28T14:30:15;9.90;;;5.20;;
35576;SDS011;21680;52.400;16.920;2023-02-28T14:33:04;12.40;;;5.70;;
35576;SDS011;21680;52.400;16.920;2023-02-28T14:35:43;14.00;;;6.00;;
35576;SDS011;21680;52.400;16.920;2023-02-28T14:38:27;9.40;;;5.20;;
35576;SDS011;21680;52.400;16.920;2023-02-28T14:40:57;11.00;;;5.70;;
35576;SDS011;21680;52.400;16.920;2023-02-28T14:43:26;11.10;;;4.70;;
35576;SDS011;21680;52.400;16.920;2023-02-28T14:45:57;11.10;;;4.90;;
35576;SDS011;21680;52.400;16.920;2023-02-28T14:48:25;17.70;;;5.80;;
35576;SDS011;21680;52.400;16.920;2023-02-28T14:50:52;12.30;;;5.90;;
35576;SDS011;21680;52.400;16.920;2023-02-28T14:53:21;15.10;;;5.50;;
35576;SDS011;21680;52.400;16.920;2023-02-28T14:55:48;15.20;;;6.00;;
35576;SDS011;21680;52.400;16.920;2023-02-28T14:58:28;11.20;;;6.40;;
35576;SDS011;21680;52.400;16.920;2023-02-28T15:00:56;16.60;;;7.00;;
35576;SDS011;21680;52.400;16.920;2023-02-28T15:05:58;17.80;;;6.80;;
35576;SDS011;21680;52.400;16.920;2023-02-28T15:08:25;23.40;;;7.10;;
35576;SDS011;21680;52.400;16.920;2023-02-28T15:10:55;18.20;;;6.00;;
35576;SDS011;21680;52.400;16.920;2023-02-28T15:13:26;15.60;;;6.60;;
35576;SDS011;21680;52.400;16.920;2023-02-28T15:16:10;16.00;;;5.90;;
35576;SDS011;21680;52.400;16.920;2023-02-28T15:23:50;16.50;;;6.20;;
35576;SDS011;21680;52.400;16.920;2023-02-28T15:26:23;14.80;;;6.60;;
35576;SDS011;21680;52.400;16.920;2023-02-28T15:28:58;14.10;;;6.90;;
35576;SDS011;21680;52.400;16.920;2023-02-28T15:33:54;18.70;;;6.90;;
35576;SDS011;21680;52.400;16.920;2023-02-28T15:36:21;21.30;;;6.60;;
35576;SDS011;21680;52.400;16.920;2023-02-28T15:38:52;15.80;;;7.20;;
35576;SDS011;21680;52.400;16.920;2023-02-28T15:41:37;18.20;;;7.40;;
35576;SDS011;21680;52.400;16.920;2023-02-28T15:46:59;18.00;;;7.00;;
35576;SDS011;21680;52.400;16.920;2023-02-28T15:49:26;16.70;;;7.30;;
35576;SDS011;21680;52.400;16.920;2023-02-28T15:51:53;19.00;;;7.70;;
35576;SDS011;21680;52.400;16.920;2023-02-28T15:54:24;19.20;;;5.50;;
35576;SDS011;21680;52.400;16.920;2023-02-28T15:57:06;14.80;;;6.40;;
35576;SDS011;21680;52.400;16.920;2023-02-28T15:59:37;14.30;;;6.50;;
35576;SDS011;21680;52.400;16.920;2023-02-28T16:04:35;28.70;;;11.60;;
35576;SDS011;21680;52.400;16.920;2023-02-28T16:07:01;25.50;;;11.20;;
35576;SDS011;21680;52.400;16.920;2023-02-28T16:09:28;29.00;;;12.70;;
35576;SDS011;21680;52.400;16.920;2023-02-28T16:11:55;22.70;;;11.50;;
35576;SDS011;21680;52.400;16.920;2023-02-28T16:14:27;31.10;;;12.90;;
35576;SDS011;21680;52.400;16.920;2023-02-28T16:16:55;25.30;;;11.00;;
35576;SDS011;21680;52.400;16.920;2023-02-28T16:19:31;24.60;;;11.60;;
35576;SDS011;21680;52.400;16.920;2023-02-28T16:21:57;26.80;;;12.40;;
35576;SDS011;21680;52.400;16.920;2023-02-28T16:24:22;37.20;;;14.10;;
35576;SDS011;21680;52.400;16.920;2023-02-28T16:26:48;43.10;;;14.60;;
35576;SDS011;21680;52.400;16.920;2023-02-28T16:29:19;34.30;;;16.00;;
35576;SDS011;21680;52.400;16.920;2023-02-28T16:31:51;33.80;;;16.00;;
35576;SDS011;21680;52.400;16.920;2023-02-28T16:34:18;49.50;;;20.50;;
35576;SDS011;21680;52.400;16.920;2023-02-28T16:36:46;51.10;;;20.20;;
35576;SDS011;21680;52.400;16.920;2023-02-28T16:39:12;48.80;;;18.60;;
35576;SDS011;21680;52.400;16.920;2023-02-28T16:41:37;45.70;;;19.10;;
35576;SDS011;21680;52.400;16.920;2023-02-28T16:44:07;44.60;;;18.90;;
35576;SDS011;21680;52.400;16.920;2023-02-28T16:46:37;39.40;;;17.20;;
35576;SDS011;21680;52.400;16.920;2023-02-28T16:49:03;42.30;;;17.80;;
35576;SDS011;21680;52.400;16.920;2023-02-28T16:51:28;46.40;;;17.40;;
35576;SDS011;21680;52.400;16.920;2023-02-28T16:53:53;41.50;;;18.50;;
35576;SDS011;21680;52.400;16.920;2023-02-28T16:56:20;41.50;;;18.50;;
35576;SDS011;21680;52.400;16.920;2023-02-28T16:58:47;34.10;;;16.30;;
35576;SDS011;21680;52.400;16.920;2023-02-28T17:01:14;37.40;;;16.60;;
35576;SDS011;21680;52.400;16.920;2023-02-28T17:03:39;38.30;;;16.90;;
35576;SDS011;21680;52.400;16.920;2023-02-28T17:06:12;42.20;;;17.70;;
35576;SDS011;21680;52.400;16.920;2023-02-28T17:08:52;38.40;;;17.50;;
35576;SDS011;21680;52.400;16.920;2023-02-28T17:11:19;41.40;;;17.80;;